sensor_id;sensor_type;location;lat;lon;timestamp;temperature;humidity
8736;DHT22;4404;49.308;12.178;2024-01-15T00:00:58;10.20;59.40
8736;DHT22;4404;49.308;12.178;2024-01-15T00:03:00;10.30;59.50
8736;DHT22;4404;49.308;12.178;2024-01-15T00:05:02;10.30;59.50
8736;DHT22;4404;49.308;12.178;2024-01-15T00:07:04;10.20;59.40
8736;DHT22;4404;49.308;12.178;2024-01-15T00:09:06;10.20;59.30
8736;DHT22;4404;49.308;12.178;2024-01-15T00:11:09;10.30;59.30
8736;DHT22;4404;49.308;12.178;2024-01-15T00:13:11;10.20;59.30
8736;DHT22;4404;49.308;12.178;2024-01-15T00:15:14;10.20;59.30
8736;DHT22;4404;49.308;12.178;2024-01-15T00:17:15;10.20;59.30
8736;DHT22;4404;49.308;12.178;2024-01-15T00:19:17;10.20;59.80
8736;DHT22;4404;49.308;12.178;2024-01-15T00:21:19;10.20;59.30
8736;DHT22;4404;49.308;12.178;2024-01-15T00:23:21;10.20;59.30
8736;DHT22;4404;49.308;12.178;2024-01-15T00:25:21;10.20;59.20
8736;DHT22;4404;49.308;12.178;2024-01-15T00:27:25;10.20;59.20
8736;DHT22;4404;49.308;12.178;2024-01-15T00:29:27;10.20;59.10
8736;DHT22;4404;49.308;12.178;2024-01-15T00:31:29;10.20;59.00
8736;DHT22;4404;49.308;12.178;2024-01-15T00:33:31;10.20;58.90
8736;DHT22;4404;49.308;12.178;2024-01-15T00:35:33;10.20;58.80
8736;DHT22;4404;49.308;12.178;2024-01-15T00:37:35;10.20;58.80
8736;DHT22;4404;49.308;12.178;2024-01-15T00:39:36;10.20;58.70
8736;DHT22;4404;49.308;12.178;2024-01-15T00:41:38;10.20;58.60
8736;DHT22;4404;49.308;12.178;2024-01-15T00:43:40;10.20;58.60
8736;DHT22;4404;49.308;12.178;2024-01-15T00:45:42;10.10;59.10
8736;DHT22;4404;49.308;12.178;2024-01-15T00:47:44;10.10;58.50
8736;DHT22;4404;49.308;12.178;2024-01-15T00:49:46;10.10;58.50
8736;DHT22;4404;49.308;12.178;2024-01-15T00:51:48;10.20;58.60
8736;DHT22;4404;49.308;12.178;2024-01-15T00:53:49;10.20;58.50
8736;DHT22;4404;49.308;12.178;2024-01-15T00:55:51;10.20;58.50
8736;DHT22;4404;49.308;12.178;2024-01-15T00:57:53;10.20;58.50
8736;DHT22;4404;49.308;12.178;2024-01-15T00:59:56;10.10;58.40
8736;DHT22;4404;49.308;12.178;2024-01-15T01:01:58;10.20;58.40
8736;DHT22;4404;49.308;12.178;2024-01-15T01:04:00;10.10;58.40
8736;DHT22;4404;49.308;12.178;2024-01-15T01:06:01;10.20;58.40
8736;DHT22;4404;49.308;12.178;2024-01-15T01:08:05;10.10;58.30
8736;DHT22;4404;49.308;12.178;2024-01-15T01:10:07;10.20;58.30
8736;DHT22;4404;49.308;12.178;2024-01-15T01:12:09;10.20;58.40
8736;DHT22;4404;49.308;12.178;2024-01-15T01:14:12;10.20;58.30
8736;DHT22;4404;49.308;12.178;2024-01-15T01:16:15;10.20;58.90
8736;DHT22;4404;49.308;12.178;2024-01-15T01:18:17;10.20;58.30
8736;DHT22;4404;49.308;12.178;2024-01-15T01:20:19;10.10;58.30
8736;DHT22;4404;49.308;12.178;2024-01-15T01:22:21;10.20;58.20
8736;DHT22;4404;49.308;12.178;2024-01-15T01:24:23;10.10;58.10
8736;DHT22;4404;49.308;12.178;2024-01-15T01:26:25;10.10;58.10
8736;DHT22;4404;49.308;12.178;2024-01-15T01:28:28;10.20;58.30
8736;DHT22;4404;49.308;12.178;2024-01-15T01:30:29;10.20;58.30
8736;DHT22;4404;49.308;12.178;2024-01-15T01:32:32;10.10;58.20
8736;DHT22;4404;49.308;12.178;2024-01-15T01:34:40;10.10;58.10
8736;DHT22;4404;49.308;12.178;2024-01-15T01:36:43;10.10;58.10
8736;DHT22;4404;49.308;12.178;2024-01-15T01:38:45;10.10;58.20
8736;DHT22;4404;49.308;12.178;2024-01-15T01:40:47;10.20;58.20
8736;DHT22;4404;49.308;12.178;2024-01-15T01:42:49;10.10;58.10
8736;DHT22;4404;49.308;12.178;2024-01-15T01:44:51;10.10;58.10
8736;DHT22;4404;49.308;12.178;2024-01-15T01:46:53;10.20;58.20
8736;DHT22;4404;49.308;12.178;2024-01-15T01:48:57;10.10;58.10
8736;DHT22;4404;49.308;12.178;2024-01-15T01:51:04;10.10;58.10
8736;DHT22;4404;49.308;12.178;2024-01-15T01:53:06;10.10;58.10
8736;DHT22;4404;49.308;12.178;2024-01-15T01:55:09;10.10;58.70
8736;DHT22;4404;49.308;12.178;2024-01-15T01:57:12;10.10;58.10
8736;DHT22;4404;49.308;12.178;2024-01-15T01:59:13;10.10;58.10
8736;DHT22;4404;49.308;12.178;2024-01-15T02:01:16;10.10;58.10
8736;DHT22;4404;49.308;12.178;2024-01-15T02:03:18;10.10;58.20
8736;DHT22;4404;49.308;12.178;2024-01-15T02:05:22;10.10;58.20
8736;DHT22;4404;49.308;12.178;2024-01-15T02:07:24;10.10;58.10
8736;DHT22;4404;49.308;12.178;2024-01-15T02:09:26;10.10;58.20
8736;DHT22;4404;49.308;12.178;2024-01-15T02:11:27;10.10;58.10
8736;DHT22;4404;49.308;12.178;2024-01-15T02:13:29;10.10;58.70
8736;DHT22;4404;49.308;12.178;2024-01-15T02:15:31;10.20;58.30
8736;DHT22;4404;49.308;12.178;2024-01-15T02:17:33;10.10;58.10
8736;DHT22;4404;49.308;12.178;2024-01-15T02:19:34;10.10;58.20
8736;DHT22;4404;49.308;12.178;2024-01-15T02:21:37;10.10;58.20
8736;DHT22;4404;49.308;12.178;2024-01-15T02:23:40;10.10;58.20
8736;DHT22;4404;49.308;12.178;2024-01-15T02:25:44;10.10;58.10
8736;DHT22;4404;49.308;12.178;2024-01-15T02:27:47;10.10;58.10
8736;DHT22;4404;49.308;12.178;2024-01-15T02:29:48;10.10;58.10
8736;DHT22;4404;49.308;12.178;2024-01-15T02:31:51;10.10;58.10
8736;DHT22;4404;49.308;12.178;2024-01-15T02:33:53;10.10;58.10
8736;DHT22;4404;49.308;12.178;2024-01-15T02:35:55;10.10;58.10
8736;DHT22;4404;49.308;12.178;2024-01-15T02:37:57;10.10;58.10
8736;DHT22;4404;49.308;12.178;2024-01-15T02:39:59;10.10;58.10
8736;DHT22;4404;49.308;12.178;2024-01-15T02:42:01;10.10;58.20
8736;DHT22;4404;49.308;12.178;2024-01-15T02:44:03;10.10;58.10
8736;DHT22;4404;49.308;12.178;2024-01-15T02:46:05;10.10;58.10
8736;DHT22;4404;49.308;12.178;2024-01-15T02:48:07;10.20;58.30
8736;DHT22;4404;49.308;12.178;2024-01-15T02:50:09;10.10;58.10
8736;DHT22;4404;49.308;12.178;2024-01-15T02:52:10;10.10;58.10
8736;DHT22;4404;49.308;12.178;2024-01-15T02:54:13;10.20;58.30
8736;DHT22;4404;49.308;12.178;2024-01-15T02:56:15;10.10;58.10
8736;DHT22;4404;49.308;12.178;2024-01-15T02:58:17;10.10;58.10
8736;DHT22;4404;49.308;12.178;2024-01-15T03:00:19;10.20;58.30
8736;DHT22;4404;49.308;12.178;2024-01-15T03:02:21;10.20;58.30
8736;DHT22;4404;49.308;12.178;2024-01-15T03:04:23;10.20;58.30
8736;DHT22;4404;49.308;12.178;2024-01-15T03:06:25;10.20;58.20
8736;DHT22;4404;49.308;12.178;2024-01-15T03:08:27;10.10;58.20
8736;DHT22;4404;49.308;12.178;2024-01-15T03:10:29;10.10;58.30
8736;DHT22;4404;49.308;12.178;2024-01-15T03:12:33;10.10;58.30
8736;DHT22;4404;49.308;12.178;2024-01-15T03:14:35;10.10;58.40
8736;DHT22;4404;49.308;12.178;2024-01-15T03:16:36;10.10;58.30
8736;DHT22;4404;49.308;12.178;2024-01-15T03:18:38;10.10;58.50
8736;DHT22;4404;49.308;12.178;2024-01-15T03:20:40;10.10;58.50
8736;DHT22;4404;49.308;12.178;2024-01-15T03:22:42;10.10;58.50
8736;DHT22;4404;49.308;12.178;2024-01-15T03:24:44;10.10;58.50
8736;DHT22;4404;49.308;12.178;2024-01-15T03:26:46;10.10;58.50
8736;DHT22;4404;49.308;12.178;2024-01-15T03:28:49;10.10;58.50
8736;DHT22;4404;49.308;12.178;2024-01-15T03:30:52;10.10;58.50
8736;DHT22;4404;49.308;12.178;2024-01-15T03:32:54;10.10;58.50
8736;DHT22;4404;49.308;12.178;2024-01-15T03:34:56;10.10;58.50
8736;DHT22;4404;49.308;12.178;2024-01-15T03:36:58;10.10;58.50
8736;DHT22;4404;49.308;12.178;2024-01-15T03:38:59;10.10;58.50
8736;DHT22;4404;49.308;12.178;2024-01-15T03:41:01;10.10;58.50
8736;DHT22;4404;49.308;12.178;2024-01-15T03:43:03;10.10;58.50
8736;DHT22;4404;49.308;12.178;2024-01-15T03:45:07;10.20;58.60
8736;DHT22;4404;49.308;12.178;2024-01-15T03:47:09;10.10;58.50
8736;DHT22;4404;49.308;12.178;2024-01-15T03:49:11;10.20;58.60
8736;DHT22;4404;49.308;12.178;2024-01-15T03:51:12;10.20;58.60
8736;DHT22;4404;49.308;12.178;2024-01-15T03:53:14;10.20;58.60
8736;DHT22;4404;49.308;12.178;2024-01-15T03:55:16;10.10;58.50
8736;DHT22;4404;49.308;12.178;2024-01-15T03:57:17;10.10;58.60
8736;DHT22;4404;49.308;12.178;2024-01-15T03:59:19;10.10;58.70
8736;DHT22;4404;49.308;12.178;2024-01-15T04:01:21;10.20;58.80
8736;DHT22;4404;49.308;12.178;2024-01-15T04:03:23;10.10;58.70
8736;DHT22;4404;49.308;12.178;2024-01-15T04:05:24;10.10;58.90
8736;DHT22;4404;49.308;12.178;2024-01-15T04:07:26;10.20;58.90
8736;DHT22;4404;49.308;12.178;2024-01-15T04:09:29;10.10;58.90
8736;DHT22;4404;49.308;12.178;2024-01-15T04:11:30;10.10;58.90
8736;DHT22;4404;49.308;12.178;2024-01-15T04:13:32;10.20;59.10
8736;DHT22;4404;49.308;12.178;2024-01-15T04:15:34;10.10;58.90
8736;DHT22;4404;49.308;12.178;2024-01-15T04:17:38;10.10;59.00
8736;DHT22;4404;49.308;12.178;2024-01-15T04:19:40;10.20;59.10
8736;DHT22;4404;49.308;12.178;2024-01-15T04:21:44;10.20;59.10
8736;DHT22;4404;49.308;12.178;2024-01-15T04:23:46;10.20;59.10
8736;DHT22;4404;49.308;12.178;2024-01-15T04:25:48;10.20;59.20
8736;DHT22;4404;49.308;12.178;2024-01-15T04:27:50;10.20;59.20
8736;DHT22;4404;49.308;12.178;2024-01-15T04:29:52;10.20;59.20
8736;DHT22;4404;49.308;12.178;2024-01-15T04:31:54;10.10;59.10
8736;DHT22;4404;49.308;12.178;2024-01-15T04:33:56;10.20;59.20
8736;DHT22;4404;49.308;12.178;2024-01-15T04:36:01;10.10;59.10
8736;DHT22;4404;49.308;12.178;2024-01-15T04:38:04;10.20;59.20
8736;DHT22;4404;49.308;12.178;2024-01-15T04:40:06;10.20;59.20
8736;DHT22;4404;49.308;12.178;2024-01-15T04:42:09;10.20;59.30
8736;DHT22;4404;49.308;12.178;2024-01-15T04:44:11;10.10;59.10
8736;DHT22;4404;49.308;12.178;2024-01-15T04:46:13;10.20;59.20
8736;DHT22;4404;49.308;12.178;2024-01-15T04:48:15;10.20;59.20
8736;DHT22;4404;49.308;12.178;2024-01-15T04:50:18;10.20;59.30
8736;DHT22;4404;49.308;12.178;2024-01-15T04:52:20;10.20;59.30
8736;DHT22;4404;49.308;12.178;2024-01-15T04:54:22;10.20;59.30
8736;DHT22;4404;49.308;12.178;2024-01-15T04:56:24;10.20;59.30
8736;DHT22;4404;49.308;12.178;2024-01-15T04:58:26;10.20;59.30
8736;DHT22;4404;49.308;12.178;2024-01-15T05:00:28;10.20;59.30
8736;DHT22;4404;49.308;12.178;2024-01-15T05:02:30;10.20;59.30
8736;DHT22;4404;49.308;12.178;2024-01-15T05:04:32;10.20;59.30
8736;DHT22;4404;49.308;12.178;2024-01-15T05:06:35;10.20;59.40
8736;DHT22;4404;49.308;12.178;2024-01-15T05:08:37;10.20;59.40
8736;DHT22;4404;49.308;12.178;2024-01-15T05:10:39;10.20;59.30
8736;DHT22;4404;49.308;12.178;2024-01-15T05:12:40;10.20;59.40
8736;DHT22;4404;49.308;12.178;2024-01-15T05:14:42;10.20;59.40
8736;DHT22;4404;49.308;12.178;2024-01-15T05:16:46;10.10;59.30
8736;DHT22;4404;49.308;12.178;2024-01-15T05:18:49;10.20;59.30
8736;DHT22;4404;49.308;12.178;2024-01-15T05:20:51;10.20;59.40
8736;DHT22;4404;49.308;12.178;2024-01-15T05:22:55;10.20;59.40
8736;DHT22;4404;49.308;12.178;2024-01-15T05:24:57;10.20;59.40
8736;DHT22;4404;49.308;12.178;2024-01-15T05:26:59;10.20;59.40
8736;DHT22;4404;49.308;12.178;2024-01-15T05:29:00;10.20;59.40
8736;DHT22;4404;49.308;12.178;2024-01-15T05:31:03;10.20;59.40
8736;DHT22;4404;49.308;12.178;2024-01-15T05:33:05;10.20;59.40
8736;DHT22;4404;49.308;12.178;2024-01-15T05:35:07;10.20;59.40
8736;DHT22;4404;49.308;12.178;2024-01-15T05:37:10;10.10;59.50
8736;DHT22;4404;49.308;12.178;2024-01-15T05:39:13;10.10;59.40
8736;DHT22;4404;49.308;12.178;2024-01-15T05:41:15;10.20;59.50
8736;DHT22;4404;49.308;12.178;2024-01-15T05:43:16;10.20;59.50
8736;DHT22;4404;49.308;12.178;2024-01-15T05:45:18;10.20;59.60
8736;DHT22;4404;49.308;12.178;2024-01-15T05:47:19;10.20;59.60
8736;DHT22;4404;49.308;12.178;2024-01-15T05:49:21;10.20;59.60
8736;DHT22;4404;49.308;12.178;2024-01-15T05:51:23;10.20;59.50
8736;DHT22;4404;49.308;12.178;2024-01-15T05:53:24;10.20;59.60
8736;DHT22;4404;49.308;12.178;2024-01-15T05:55:28;10.20;59.60
8736;DHT22;4404;49.308;12.178;2024-01-15T05:57:30;10.20;59.50
8736;DHT22;4404;49.308;12.178;2024-01-15T05:59:32;10.20;59.60
8736;DHT22;4404;49.308;12.178;2024-01-15T06:01:36;10.20;59.60
8736;DHT22;4404;49.308;12.178;2024-01-15T06:03:38;10.20;59.60
8736;DHT22;4404;49.308;12.178;2024-01-15T06:05:40;10.10;59.60
8736;DHT22;4404;49.308;12.178;2024-01-15T06:07:42;10.20;59.80
8736;DHT22;4404;49.308;12.178;2024-01-15T06:09:44;10.10;59.70
8736;DHT22;4404;49.308;12.178;2024-01-15T06:11:47;10.20;59.80
8736;DHT22;4404;49.308;12.178;2024-01-15T06:13:49;10.20;59.90
8736;DHT22;4404;49.308;12.178;2024-01-15T06:15:51;10.20;59.90
8736;DHT22;4404;49.308;12.178;2024-01-15T06:17:53;10.20;59.90
8736;DHT22;4404;49.308;12.178;2024-01-15T06:19:55;10.10;59.70
8736;DHT22;4404;49.308;12.178;2024-01-15T06:21:57;10.20;59.90
8736;DHT22;4404;49.308;12.178;2024-01-15T06:23:59;10.10;59.80
8736;DHT22;4404;49.308;12.178;2024-01-15T06:26:00;10.20;59.90
8736;DHT22;4404;49.308;12.178;2024-01-15T06:28:05;10.20;59.90
8736;DHT22;4404;49.308;12.178;2024-01-15T06:30:08;10.20;59.90
8736;DHT22;4404;49.308;12.178;2024-01-15T06:32:11;10.20;59.90
8736;DHT22;4404;49.308;12.178;2024-01-15T06:34:14;10.20;60.00
8736;DHT22;4404;49.308;12.178;2024-01-15T06:36:16;10.20;60.10
8736;DHT22;4404;49.308;12.178;2024-01-15T06:38:18;10.20;60.00
8736;DHT22;4404;49.308;12.178;2024-01-15T06:40:20;10.10;59.90
8736;DHT22;4404;49.308;12.178;2024-01-15T06:42:22;10.10;59.90
8736;DHT22;4404;49.308;12.178;2024-01-15T06:44:26;10.20;60.00
8736;DHT22;4404;49.308;12.178;2024-01-15T06:46:27;10.20;60.10
8736;DHT22;4404;49.308;12.178;2024-01-15T06:48:28;10.20;60.10
8736;DHT22;4404;49.308;12.178;2024-01-15T06:50:30;10.20;60.10
8736;DHT22;4404;49.308;12.178;2024-01-15T06:52:32;10.20;60.10
8736;DHT22;4404;49.308;12.178;2024-01-15T06:54:34;10.20;60.20
8736;DHT22;4404;49.308;12.178;2024-01-15T06:56:36;10.20;60.20
8736;DHT22;4404;49.308;12.178;2024-01-15T06:58:38;10.20;60.20
8736;DHT22;4404;49.308;12.178;2024-01-15T07:00:41;10.20;60.20
8736;DHT22;4404;49.308;12.178;2024-01-15T07:02:43;10.20;60.10
8736;DHT22;4404;49.308;12.178;2024-01-15T07:04:45;10.20;60.20
8736;DHT22;4404;49.308;12.178;2024-01-15T07:06:47;10.20;60.20
8736;DHT22;4404;49.308;12.178;2024-01-15T07:08:49;10.20;60.30
8736;DHT22;4404;49.308;12.178;2024-01-15T07:10:50;10.20;60.30
8736;DHT22;4404;49.308;12.178;2024-01-15T07:12:52;10.20;60.30
8736;DHT22;4404;49.308;12.178;2024-01-15T07:14:54;10.20;60.20
8736;DHT22;4404;49.308;12.178;2024-01-15T07:16:57;10.20;60.30
8736;DHT22;4404;49.308;12.178;2024-01-15T07:18:59;10.20;60.40
8736;DHT22;4404;49.308;12.178;2024-01-15T07:21:01;10.20;60.40
8736;DHT22;4404;49.308;12.178;2024-01-15T07:23:04;10.20;60.30
8736;DHT22;4404;49.308;12.178;2024-01-15T07:25:07;10.20;60.30
8736;DHT22;4404;49.308;12.178;2024-01-15T07:27:09;10.20;60.40
8736;DHT22;4404;49.308;12.178;2024-01-15T07:29:10;10.20;60.30
8736;DHT22;4404;49.308;12.178;2024-01-15T07:31:12;10.20;60.40
8736;DHT22;4404;49.308;12.178;2024-01-15T07:33:16;10.20;60.30
8736;DHT22;4404;49.308;12.178;2024-01-15T07:35:18;10.20;60.40
8736;DHT22;4404;49.308;12.178;2024-01-15T07:37:20;10.20;60.50
8736;DHT22;4404;49.308;12.178;2024-01-15T07:39:23;10.20;60.50
8736;DHT22;4404;49.308;12.178;2024-01-15T07:41:26;10.20;60.50
8736;DHT22;4404;49.308;12.178;2024-01-15T07:43:27;10.20;60.50
8736;DHT22;4404;49.308;12.178;2024-01-15T07:45:30;10.20;60.50
8736;DHT22;4404;49.308;12.178;2024-01-15T07:47:32;10.20;60.50
8736;DHT22;4404;49.308;12.178;2024-01-15T07:49:35;10.20;60.50
8736;DHT22;4404;49.308;12.178;2024-01-15T07:51:37;10.20;60.50
8736;DHT22;4404;49.308;12.178;2024-01-15T07:53:40;10.20;60.50
8736;DHT22;4404;49.308;12.178;2024-01-15T07:55:42;10.20;60.50
8736;DHT22;4404;49.308;12.178;2024-01-15T07:57:46;10.20;60.50
8736;DHT22;4404;49.308;12.178;2024-01-15T07:59:48;10.20;60.50
8736;DHT22;4404;49.308;12.178;2024-01-15T08:01:52;10.20;60.60
8736;DHT22;4404;49.308;12.178;2024-01-15T08:03:54;10.20;60.50
8736;DHT22;4404;49.308;12.178;2024-01-15T08:05:58;10.20;60.50
8736;DHT22;4404;49.308;12.178;2024-01-15T08:08:00;10.20;60.60
8736;DHT22;4404;49.308;12.178;2024-01-15T08:10:02;10.20;60.80
8736;DHT22;4404;49.308;12.178;2024-01-15T08:12:04;10.20;60.70
8736;DHT22;4404;49.308;12.178;2024-01-15T08:14:07;10.20;60.80
8736;DHT22;4404;49.308;12.178;2024-01-15T08:16:08;10.20;60.80
8736;DHT22;4404;49.308;12.178;2024-01-15T08:18:10;10.30;61.00
8736;DHT22;4404;49.308;12.178;2024-01-15T08:20:11;10.30;61.00
8736;DHT22;4404;49.308;12.178;2024-01-15T08:22:15;10.30;61.10
8736;DHT22;4404;49.308;12.178;2024-01-15T08:24:16;10.20;61.00
8736;DHT22;4404;49.308;12.178;2024-01-15T08:26:18;10.20;60.80
8736;DHT22;4404;49.308;12.178;2024-01-15T08:28:20;10.20;60.90
8736;DHT22;4404;49.308;12.178;2024-01-15T08:30:22;10.30;61.10
8736;DHT22;4404;49.308;12.178;2024-01-15T08:32:26;10.30;61.90
8736;DHT22;4404;49.308;12.178;2024-01-15T08:34:28;10.20;61.00
8736;DHT22;4404;49.308;12.178;2024-01-15T08:36:31;10.30;61.10
8736;DHT22;4404;49.308;12.178;2024-01-15T08:38:37;10.20;61.00
8736;DHT22;4404;49.308;12.178;2024-01-15T08:40:39;10.30;61.20
8736;DHT22;4404;49.308;12.178;2024-01-15T08:42:41;10.20;60.90
8736;DHT22;4404;49.308;12.178;2024-01-15T08:44:43;10.30;61.10
8736;DHT22;4404;49.308;12.178;2024-01-15T08:46:45;10.30;61.30
8736;DHT22;4404;49.308;12.178;2024-01-15T08:48:47;10.20;61.10
8736;DHT22;4404;49.308;12.178;2024-01-15T08:50:49;10.30;61.30
8736;DHT22;4404;49.308;12.178;2024-01-15T08:52:51;10.20;61.30
8736;DHT22;4404;49.308;12.178;2024-01-15T08:54:56;10.20;61.50
8736;DHT22;4404;49.308;12.178;2024-01-15T08:56:58;10.30;61.60
8736;DHT22;4404;49.308;12.178;2024-01-15T08:59:00;10.30;61.60
8736;DHT22;4404;49.308;12.178;2024-01-15T09:01:02;10.20;61.60
8736;DHT22;4404;49.308;12.178;2024-01-15T09:03:04;10.20;61.70
8736;DHT22;4404;49.308;12.178;2024-01-15T09:05:06;10.20;61.70
8736;DHT22;4404;49.308;12.178;2024-01-15T09:07:08;10.20;61.80
8736;DHT22;4404;49.308;12.178;2024-01-15T09:09:10;10.30;62.00
8736;DHT22;4404;49.308;12.178;2024-01-15T09:11:13;10.30;61.90
8736;DHT22;4404;49.308;12.178;2024-01-15T09:13:15;10.20;61.80
8736;DHT22;4404;49.308;12.178;2024-01-15T09:15:18;10.30;62.00
8736;DHT22;4404;49.308;12.178;2024-01-15T09:17:19;11.00;62.90
8736;DHT22;4404;49.308;12.178;2024-01-15T09:19:22;10.30;62.00
8736;DHT22;4404;49.308;12.178;2024-01-15T09:21:24;10.30;62.10
8736;DHT22;4404;49.308;12.178;2024-01-15T09:23:26;10.30;62.20
8736;DHT22;4404;49.308;12.178;2024-01-15T09:25:28;10.30;62.20
8736;DHT22;4404;49.308;12.178;2024-01-15T09:27:31;10.30;62.10
8736;DHT22;4404;49.308;12.178;2024-01-15T09:29:33;10.30;62.30
8736;DHT22;4404;49.308;12.178;2024-01-15T09:31:37;10.30;62.40
8736;DHT22;4404;49.308;12.178;2024-01-15T09:33:39;10.30;62.40
8736;DHT22;4404;49.308;12.178;2024-01-15T09:35:41;10.30;62.20
8736;DHT22;4404;49.308;12.178;2024-01-15T09:37:43;10.30;62.30
8736;DHT22;4404;49.308;12.178;2024-01-15T09:39:45;10.30;62.60
8736;DHT22;4404;49.308;12.178;2024-01-15T09:41:49;10.30;62.40
8736;DHT22;4404;49.308;12.178;2024-01-15T09:43:52;10.30;62.40
8736;DHT22;4404;49.308;12.178;2024-01-15T09:45:55;10.30;62.50
8736;DHT22;4404;49.308;12.178;2024-01-15T09:47:57;9.70;63.00
8736;DHT22;4404;49.308;12.178;2024-01-15T09:49:59;10.30;62.50
8736;DHT22;4404;49.308;12.178;2024-01-15T09:52:01;10.30;62.90
8736;DHT22;4404;49.308;12.178;2024-01-15T09:54:04;10.30;62.70
8736;DHT22;4404;49.308;12.178;2024-01-15T09:56:06;10.30;62.50
8736;DHT22;4404;49.308;12.178;2024-01-15T09:58:08;10.30;62.50
8736;DHT22;4404;49.308;12.178;2024-01-15T10:00:13;10.30;62.60
8736;DHT22;4404;49.308;12.178;2024-01-15T10:02:16;10.30;62.80
8736;DHT22;4404;49.308;12.178;2024-01-15T10:04:19;10.30;63.00
8736;DHT22;4404;49.308;12.178;2024-01-15T10:06:21;10.30;62.70
8736;DHT22;4404;49.308;12.178;2024-01-15T10:08:23;10.30;62.70
8736;DHT22;4404;49.308;12.178;2024-01-15T10:10:26;10.30;63.00
8736;DHT22;4404;49.308;12.178;2024-01-15T10:12:28;10.30;63.00
8736;DHT22;4404;49.308;12.178;2024-01-15T10:14:30;10.30;62.70
8736;DHT22;4404;49.308;12.178;2024-01-15T10:16:34;9.90;64.70
8736;DHT22;4404;49.308;12.178;2024-01-15T10:18:36;9.50;65.80
8736;DHT22;4404;49.308;12.178;2024-01-15T10:20:40;9.40;65.90
8736;DHT22;4404;49.308;12.178;2024-01-15T10:22:44;9.40;66.00
8736;DHT22;4404;49.308;12.178;2024-01-15T10:24:47;9.50;65.90
8736;DHT22;4404;49.308;12.178;2024-01-15T10:26:49;9.60;65.80
8736;DHT22;4404;49.308;12.178;2024-01-15T10:28:51;9.60;65.90
8736;DHT22;4404;49.308;12.178;2024-01-15T10:30:55;9.60;65.80
8736;DHT22;4404;49.308;12.178;2024-01-15T10:32:59;9.60;65.70
8736;DHT22;4404;49.308;12.178;2024-01-15T10:35:02;9.70;65.80
8736;DHT22;4404;49.308;12.178;2024-01-15T10:37:07;9.70;65.80
8736;DHT22;4404;49.308;12.178;2024-01-15T10:39:09;9.70;65.90
8736;DHT22;4404;49.308;12.178;2024-01-15T10:41:12;9.70;65.90
8736;DHT22;4404;49.308;12.178;2024-01-15T10:43:15;9.70;65.90
8736;DHT22;4404;49.308;12.178;2024-01-15T10:45:18;9.70;65.80
8736;DHT22;4404;49.308;12.178;2024-01-15T10:47:20;9.80;66.10
8736;DHT22;4404;49.308;12.178;2024-01-15T10:49:24;9.80;66.10
8736;DHT22;4404;49.308;12.178;2024-01-15T10:51:29;9.70;66.30
8736;DHT22;4404;49.308;12.178;2024-01-15T10:53:30;9.80;66.10
8736;DHT22;4404;49.308;12.178;2024-01-15T10:55:33;9.80;66.20
8736;DHT22;4404;49.308;12.178;2024-01-15T10:57:37;9.80;66.20
8736;DHT22;4404;49.308;12.178;2024-01-15T10:59:39;9.80;66.10
8736;DHT22;4404;49.308;12.178;2024-01-15T11:01:42;9.80;66.20
8736;DHT22;4404;49.308;12.178;2024-01-15T11:03:44;9.80;66.10
8736;DHT22;4404;49.308;12.178;2024-01-15T11:05:48;9.80;65.90
8736;DHT22;4404;49.308;12.178;2024-01-15T11:07:51;9.80;65.90
8736;DHT22;4404;49.308;12.178;2024-01-15T11:09:56;9.80;66.10
8736;DHT22;4404;49.308;12.178;2024-01-15T11:12:07;9.80;65.90
8736;DHT22;4404;49.308;12.178;2024-01-15T11:14:12;9.80;65.90
8736;DHT22;4404;49.308;12.178;2024-01-15T11:16:56;9.80;65.90
8736;DHT22;4404;49.308;12.178;2024-01-15T11:19:03;9.80;65.90
8736;DHT22;4404;49.308;12.178;2024-01-15T11:21:27;9.80;66.10
8736;DHT22;4404;49.308;12.178;2024-01-15T11:23:42;9.80;66.00
8736;DHT22;4404;49.308;12.178;2024-01-15T11:25:44;9.80;66.70
8736;DHT22;4404;49.308;12.178;2024-01-15T11:27:47;9.80;65.90
8736;DHT22;4404;49.308;12.178;2024-01-15T11:30:03;9.80;65.90
8736;DHT22;4404;49.308;12.178;2024-01-15T11:32:06;9.80;66.00
8736;DHT22;4404;49.308;12.178;2024-01-15T11:34:10;9.80;66.10
8736;DHT22;4404;49.308;12.178;2024-01-15T11:36:11;9.80;65.90
8736;DHT22;4404;49.308;12.178;2024-01-15T11:38:26;9.80;65.90
8736;DHT22;4404;49.308;12.178;2024-01-15T11:40:37;9.80;66.50
8736;DHT22;4404;49.308;12.178;2024-01-15T11:42:40;9.80;66.10
8736;DHT22;4404;49.308;12.178;2024-01-15T11:44:42;9.80;66.20
8736;DHT22;4404;49.308;12.178;2024-01-15T11:46:52;9.80;66.30
8736;DHT22;4404;49.308;12.178;2024-01-15T11:49:03;9.80;66.50
8736;DHT22;4404;49.308;12.178;2024-01-15T11:51:06;9.70;66.30
8736;DHT22;4404;49.308;12.178;2024-01-15T11:53:31;9.80;66.40
8736;DHT22;4404;49.308;12.178;2024-01-15T11:55:36;9.80;66.50
8736;DHT22;4404;49.308;12.178;2024-01-15T11:57:46;9.80;66.50
8736;DHT22;4404;49.308;12.178;2024-01-15T11:59:48;9.80;66.70
8736;DHT22;4404;49.308;12.178;2024-01-15T12:01:49;9.80;66.80
8736;DHT22;4404;49.308;12.178;2024-01-15T12:03:52;9.80;66.80
8736;DHT22;4404;49.308;12.178;2024-01-15T12:05:54;9.80;66.60
8736;DHT22;4404;49.308;12.178;2024-01-15T12:07:54;9.80;66.80
8736;DHT22;4404;49.308;12.178;2024-01-15T12:09:58;9.80;66.70
8736;DHT22;4404;49.308;12.178;2024-01-15T12:12:07;9.80;66.80
8736;DHT22;4404;49.308;12.178;2024-01-15T12:14:13;9.80;66.70
8736;DHT22;4404;49.308;12.178;2024-01-15T12:16:15;9.80;66.70
8736;DHT22;4404;49.308;12.178;2024-01-15T12:18:17;9.80;66.80
8736;DHT22;4404;49.308;12.178;2024-01-15T12:20:19;9.90;66.80
8736;DHT22;4404;49.308;12.178;2024-01-15T12:22:21;9.80;66.60
8736;DHT22;4404;49.308;12.178;2024-01-15T12:24:23;9.80;66.80
8736;DHT22;4404;49.308;12.178;2024-01-15T12:26:26;9.80;66.80
8736;DHT22;4404;49.308;12.178;2024-01-15T12:28:28;9.80;66.70
8736;DHT22;4404;49.308;12.178;2024-01-15T12:30:31;9.80;66.50
8736;DHT22;4404;49.308;12.178;2024-01-15T12:32:34;9.90;66.60
8736;DHT22;4404;49.308;12.178;2024-01-15T12:34:37;9.80;66.60
8736;DHT22;4404;49.308;12.178;2024-01-15T12:36:40;9.80;66.60
8736;DHT22;4404;49.308;12.178;2024-01-15T12:38:44;9.90;66.70
8736;DHT22;4404;49.308;12.178;2024-01-15T12:40:47;9.90;66.70
8736;DHT22;4404;49.308;12.178;2024-01-15T12:42:51;9.80;66.60
8736;DHT22;4404;49.308;12.178;2024-01-15T12:44:55;9.80;66.60
8736;DHT22;4404;49.308;12.178;2024-01-15T12:46:57;9.90;66.80
8736;DHT22;4404;49.308;12.178;2024-01-15T12:48:59;9.90;66.70
8736;DHT22;4404;49.308;12.178;2024-01-15T12:51:01;9.90;66.60
8736;DHT22;4404;49.308;12.178;2024-01-15T12:53:03;9.90;66.70
8736;DHT22;4404;49.308;12.178;2024-01-15T12:55:05;9.90;66.90
8736;DHT22;4404;49.308;12.178;2024-01-15T12:57:07;9.90;66.80
8736;DHT22;4404;49.308;12.178;2024-01-15T12:59:10;9.90;66.80
8736;DHT22;4404;49.308;12.178;2024-01-15T13:01:11;9.90;66.80
8736;DHT22;4404;49.308;12.178;2024-01-15T13:03:13;9.90;66.90
8736;DHT22;4404;49.308;12.178;2024-01-15T13:05:16;9.90;67.00
8736;DHT22;4404;49.308;12.178;2024-01-15T13:07:18;9.90;67.00
8736;DHT22;4404;49.308;12.178;2024-01-15T13:09:20;9.90;67.00
8736;DHT22;4404;49.308;12.178;2024-01-15T13:11:22;9.90;67.00